Aredale, IA

12:00 AM CST on December 11, 2016 (GMT -0600)
Beeds Addition | | Change Station
Active Advisory: Winter Storm Warning

Elev 1145 ft 42.74 °N, 93.20 °W | Updated 39 seconds ago

Snow
Snow
19.9 °F
Feels Like 11 °F
N
7.3
Wind Variable Wind from ENE

Today
High -- | Low -- °F
--% Chance of Precip.
Yesterday
High -- | Low -- °F
Precip. -- in
Pressure 30.07 in
Visibility 1.8 miles
Clouds Overcast 400 ft
Windchill 11 °F
Dew Point 18 °F
Humidity 93%
Rainfall 0.20 in
Snow Depth Not available.
7:33 AM 4:37 PM
Waxing Gibbous, 89% visible
METAR KCCY 110555Z AUTO 10014KT 1 3/4SM -SN OVC004 M06/M07 A3007 RMK AO2
Pressure 30.07 in
Visibility 1.8 miles
Clouds Overcast 400 ft
Windchill 11 °F
Dew Point 18 °F
Humidity 93%
Rainfall 0.20 in
Snow Depth Not available.
7:33 AM 4:37 PM
Waxing Gibbous, 89% visible
METAR KCCY 110555Z AUTO 10014KT 1 3/4SM -SN OVC004 M06/M07 A3007 RMK AO2

10-Day Weather Forecast

Almanac

Astronomy

Dec. 11, 2016 Rise Set
Actual Time
Civil Twilight
Nautical Twilight
Astronomical Twilight
Moon
Length of Visible Light
Length of Day
Tomorrow will be .
, % of the Moon is Illuminated

Today's Extremes

State Highs State Lows

Community

WunderPhotos

Upload Photos

1,956,706 photos uploaded!

WunderBlog® & News

Nearby

Air Quality

  Air Quality AQ Index Pollutant
Not available.

Snow Depth

Station Depth Elevation

Earthquake Activity

City Distance Mag. Time & Date
Minimum magnitude displayed is 2.5.

Coastal Water Temperatures

Place Temperature

Stations

Nearby Weather Stations

Station Location Temp. Windchill Dew Point Humidity Wind Precip. Elev Updated Type
                   

Watches & Warnings

Winter Storm Warning
Issued: 10:15 PM CST Dec. 10, 2016 – National Weather Service

... Winter Storm Warning remains in effect until noon CST Sunday...

* short term trends... a band of light to locally moderate snow
looks to continue to spread over the warned area during the
overnight hours.

* Storm total snow accumulations... additional snowfall totals of 3
to 6 inches are expected through Sunday morning... with locally
higher amounts possible resulting in storm total accumulations
of 5 to 8 inches are anticipated.

* Winds/visibility... southeast winds 10 to 15 mph with gusts to
near 25 mph will cause visibilities to be reduced to less than
one half mile at times.

* Impacts... the primary impacts will be very hazardous travel
conditions due to reduced visibility and snow covered and icy
roads.

Precautionary/preparedness actions...

A Winter Storm Warning for heavy snow means severe winter weather
conditions are expected or occurring. Significant amounts of snow
are forecast that will make travel dangerous. Only travel in an
emergency. If you must travel, keep an extra flashlight, food,
and water in your vehicle in case of an emergency.